createdAt,value
2023-05-19T00:00:02.333Z,2.02
2023-05-19T00:01:02.350Z,2.038
2023-05-19T00:02:02.391Z,2.057
2023-05-19T00:03:02.513Z,2.057
2023-05-19T00:04:02.454Z,2.011
2023-05-19T00:05:02.413Z,1.973
2023-05-19T00:06:02.456Z,1.955
2023-05-19T00:07:02.449Z,1.936
2023-05-19T00:08:02.448Z,1.926
2023-05-19T00:09:02.468Z,1.879
2023-05-19T00:10:02.466Z,1.766
2023-05-19T00:11:02.489Z,1.747
2023-05-19T00:12:02.531Z,1.757
2023-05-19T00:13:02.542Z,1.757
2023-05-19T00:14:02.585Z,1.7
2023-05-19T00:15:02.609Z,1.672
2023-05-19T00:16:02.693Z,1.681
2023-05-19T00:17:02.646Z,1.681
2023-05-19T00:18:02.715Z,1.672
2023-05-19T00:19:02.726Z,1.625
2023-05-19T00:20:02.704Z,1.625
2023-05-19T00:21:02.738Z,1.625
2023-05-19T00:22:02.781Z,1.605
2023-05-19T00:23:02.784Z,1.605
2023-05-19T00:24:02.801Z,1.624
2023-05-19T00:25:02.826Z,1.624
2023-05-19T00:26:02.850Z,1.624
2023-05-19T00:27:02.880Z,1.605
2023-05-19T00:28:02.891Z,1.53
2023-05-19T00:29:02.903Z,1.549
2023-05-19T00:30:02.938Z,1.512
2023-05-19T00:31:02.935Z,1.512
2023-05-19T00:32:02.989Z,1.475
2023-05-19T00:33:02.999Z,1.494
2023-05-19T00:34:02.980Z,1.475
2023-05-19T00:35:03.002Z,1.475
2023-05-19T00:36:02.989Z,1.494
2023-05-19T00:37:03.010Z,1.513
2023-05-19T00:38:03.027Z,1.494
2023-05-19T00:39:03.092Z,1.495
2023-05-19T00:40:03.080Z,1.495
2023-05-19T00:41:02.172Z,1.457
2023-05-19T00:42:02.107Z,1.383
2023-05-19T00:43:02.141Z,1.383
2023-05-19T00:44:02.223Z,1.374
2023-05-19T00:45:02.179Z,1.393
2023-05-19T00:46:02.269Z,1.393
2023-05-19T00:47:02.644Z,1.374
2023-05-19T00:48:02.393Z,1.346
2023-05-19T00:49:02.268Z,1.327
2023-05-19T00:50:02.292Z,1.308
2023-05-19T00:51:02.561Z,1.327
2023-05-19T00:52:02.337Z,1.327
2023-05-19T00:53:02.365Z,1.328
2023-05-19T00:54:02.395Z,1.3
2023-05-19T00:55:02.369Z,1.31
2023-05-19T00:56:02.446Z,1.292
2023-05-19T00:57:02.378Z,1.273
2023-05-19T00:58:02.486Z,1.273
2023-05-19T00:59:02.399Z,1.31
2023-05-19T01:00:02.498Z,1.311
2023-05-19T01:01:02.474Z,1.311
2023-05-19T01:02:02.478Z,1.311
2023-05-19T01:03:02.674Z,1.33
2023-05-19T01:04:02.720Z,1.274
2023-05-19T01:05:02.566Z,1.293
2023-05-19T01:06:02.592Z,1.312
2023-05-19T01:07:02.624Z,1.293
2023-05-19T01:08:02.632Z,1.275
2023-05-19T01:09:02.653Z,1.294
2023-05-19T01:10:02.683Z,1.313
2023-05-19T01:11:02.705Z,1.276
2023-05-19T01:12:02.733Z,1.294
2023-05-19T01:13:02.735Z,1.257
2023-05-19T01:14:02.763Z,1.276
2023-05-19T01:15:02.806Z,1.276
2023-05-19T01:16:02.909Z,1.276
2023-05-19T01:17:02.849Z,1.276
2023-05-19T01:18:02.890Z,1.249
2023-05-19T01:19:03.053Z,1.333
2023-05-19T01:20:02.892Z,1.277
2023-05-19T01:21:02.917Z,1.249
2023-05-19T01:22:02.924Z,1.249
2023-05-19T01:23:02.941Z,1.221
2023-05-19T01:24:02.941Z,1.24
2023-05-19T01:25:02.955Z,1.333
2023-05-19T01:26:02.956Z,1.332
2023-05-19T01:27:02.985Z,1.249
2023-05-19T01:28:03.019Z,1.23
2023-05-19T01:29:03.049Z,1.212
2023-05-19T01:30:03.080Z,1.23
2023-05-19T01:31:02.098Z,1.212
2023-05-19T01:32:02.217Z,1.212
2023-05-19T01:33:02.311Z,1.249
2023-05-19T01:34:02.181Z,1.221
2023-05-19T01:35:02.203Z,1.193
2023-05-19T01:36:02.262Z,1.193
2023-05-19T01:37:02.273Z,1.137
2023-05-19T01:38:02.280Z,1.137
2023-05-19T01:39:02.304Z,1.21
2023-05-19T01:40:02.317Z,1.265
2023-05-19T01:41:02.339Z,1.266
2023-05-19T01:42:02.356Z,1.321
2023-05-19T01:43:02.401Z,1.316
2023-05-19T01:44:02.414Z,1.316
2023-05-19T01:45:02.439Z,1.355
2023-05-19T01:46:02.495Z,1.261
2023-05-19T01:47:02.483Z,1.243
2023-05-19T01:48:02.538Z,1.184
2023-05-19T01:49:02.530Z,1.166
2023-05-19T01:50:02.552Z,1.184
2023-05-19T01:51:02.564Z,1.145
2023-05-19T01:52:02.575Z,1.112
2023-05-19T01:53:02.601Z,1.112
2023-05-19T01:54:02.617Z,1.022
2023-05-19T01:55:02.619Z,1.04
2023-05-19T01:56:02.625Z,1.036
2023-05-19T01:57:02.640Z,1.054
2023-05-19T01:58:02.654Z,1.015
2023-05-19T01:59:02.694Z,1.017
2023-05-19T02:00:02.729Z,1.029
2023-05-19T02:01:02.752Z,1.013
2023-05-19T02:02:02.749Z,0.9913
2023-05-19T02:03:02.806Z,1.008
2023-05-19T02:04:02.825Z,0.9577
2023-05-19T02:05:02.813Z,0.9932
2023-05-19T02:06:02.837Z,1.011
2023-05-19T02:07:02.876Z,1.028
2023-05-19T02:08:02.889Z,1.041
2023-05-19T02:09:02.917Z,0.9891
2023-05-19T02:10:02.917Z,1.007
2023-05-19T02:11:02.948Z,1.007
2023-05-19T02:12:02.962Z,0.9856
2023-05-19T02:13:02.979Z,0.9507
2023-05-19T02:14:03.005Z,0.9507
2023-05-19T02:15:03.009Z,0.9507
2023-05-19T02:16:03.128Z,0.9507
2023-05-19T02:17:03.023Z,0.9457
2023-05-19T02:18:03.149Z,0.8767
2023-05-19T02:19:03.131Z,0.8714
2023-05-19T02:20:03.050Z,0.9069
2023-05-19T02:21:03.070Z,0.9243
2023-05-19T02:22:02.102Z,0.9538
2023-05-19T02:23:02.167Z,0.9538
2023-05-19T02:24:02.164Z,0.9712
2023-05-19T02:25:02.180Z,0.9196
2023-05-19T02:26:02.218Z,0.937
2023-05-19T02:27:02.246Z,0.8793
2023-05-19T02:28:02.266Z,0.8965
2023-05-19T02:29:02.297Z,0.8965
2023-05-19T02:30:02.314Z,0.874
2023-05-19T02:31:02.339Z,0.874
2023-05-19T02:32:02.438Z,0.8225
2023-05-19T02:33:02.417Z,0.7872
2023-05-19T02:34:02.425Z,0.7872
2023-05-19T02:35:02.425Z,0.7872
2023-05-19T02:36:02.447Z,0.77
2023-05-19T02:37:02.470Z,0.8044
2023-05-19T02:38:02.496Z,0.7647
2023-05-19T02:39:02.512Z,0.7819
2023-05-19T02:40:02.543Z,0.7594
2023-05-19T02:41:02.573Z,0.7766
2023-05-19T02:42:02.560Z,0.7075
2023-05-19T02:43:02.574Z,0.7021
2023-05-19T02:44:02.598Z,0.7021
2023-05-19T02:45:02.616Z,0.7028
2023-05-19T02:46:02.638Z,0.7028
2023-05-19T02:47:02.627Z,0.685
2023-05-19T02:48:02.684Z,0.7028
2023-05-19T02:49:02.636Z,0.6449
2023-05-19T02:50:02.648Z,0.628
2023-05-19T02:51:02.672Z,0.628
2023-05-19T02:52:02.724Z,0.6108
2023-05-19T02:53:02.724Z,0.5937
2023-05-19T02:54:02.741Z,0.6108
2023-05-19T02:55:02.783Z,0.6108
2023-05-19T02:56:02.803Z,0.6108
2023-05-19T02:57:02.862Z,0.57
2023-05-19T02:58:02.891Z,0.5871
2023-05-19T02:59:02.892Z,0.6042
2023-05-19T03:00:02.903Z,0.6212
2023-05-19T03:01:02.927Z,0.6212
2023-05-19T03:02:03.037Z,0.5696
2023-05-19T03:03:03.167Z,0.5525
2023-05-19T03:04:03.057Z,0.5696
2023-05-19T03:05:03.039Z,0.5696
2023-05-19T03:06:03.062Z,0.6159
2023-05-19T03:07:03.080Z,0.6545
2023-05-19T03:08:02.122Z,0.6545
2023-05-19T03:09:02.126Z,0.6536
2023-05-19T03:10:02.137Z,0.6197
2023-05-19T03:11:02.156Z,0.6583
2023-05-19T03:12:02.163Z,0.6751
2023-05-19T03:13:02.178Z,0.7267
2023-05-19T03:14:02.184Z,0.7651
2023-05-19T03:15:02.209Z,0.7987
2023-05-19T03:16:02.217Z,0.8501
2023-05-19T03:17:02.274Z,0.8382
2023-05-19T03:18:02.314Z,0.754
2023-05-19T03:19:02.301Z,0.7259
2023-05-19T03:20:02.277Z,0.692
2023-05-19T03:21:02.306Z,0.692
2023-05-19T03:22:02.326Z,0.6412
2023-05-19T03:23:02.364Z,0.641
2023-05-19T03:24:02.412Z,0.6636
2023-05-19T03:25:02.425Z,0.6807
2023-05-19T03:26:02.440Z,0.6806
2023-05-19T03:27:02.499Z,0.6976
2023-05-19T03:28:02.500Z,0.7484
2023-05-19T03:29:02.514Z,0.7832
2023-05-19T03:30:04.944Z,0.8171
2023-05-19T03:31:02.595Z,0.8688
2023-05-19T03:32:02.648Z,0.8519
2023-05-19T03:33:02.713Z,0.8566
2023-05-19T03:34:02.628Z,0.8227
2023-05-19T03:35:02.646Z,0.7888
2023-05-19T03:36:02.693Z,0.7897
2023-05-19T03:37:02.680Z,0.8122
2023-05-19T03:38:02.683Z,0.8461
2023-05-19T03:39:02.704Z,0.8461
2023-05-19T03:40:02.729Z,0.8801
2023-05-19T03:41:02.725Z,0.8622
2023-05-19T03:42:02.742Z,0.897
2023-05-19T03:43:02.752Z,0.9477
2023-05-19T03:44:02.763Z,0.9487
2023-05-19T03:45:02.776Z,0.9317
2023-05-19T03:46:02.868Z,0.9364
2023-05-19T03:47:02.841Z,0.9195
2023-05-19T03:48:02.919Z,0.8847
2023-05-19T03:49:02.890Z,0.9082
2023-05-19T03:50:02.921Z,0.9137
2023-05-19T03:51:02.938Z,0.8967
2023-05-19T03:52:02.956Z,0.9022
2023-05-19T03:53:02.985Z,0.885
2023-05-19T03:54:02.998Z,0.8842
2023-05-19T03:55:03.026Z,0.9245
2023-05-19T03:56:03.042Z,0.9245
2023-05-19T03:57:03.059Z,0.9074
2023-05-19T03:58:03.070Z,0.9245
2023-05-19T03:59:02.091Z,0.9074
2023-05-19T04:00:02.110Z,0.9121
2023-05-19T04:01:02.133Z,0.9641
2023-05-19T04:02:02.172Z,1.049
2023-05-19T04:03:02.216Z,1.117
2023-05-19T04:04:02.223Z,1.117
2023-05-19T04:05:02.160Z,1.174
2023-05-19T04:06:02.180Z,1.208
2023-05-19T04:07:02.187Z,1.208
2023-05-19T04:08:02.208Z,1.191
2023-05-19T04:09:02.239Z,1.214
2023-05-19T04:10:02.265Z,1.214
2023-05-19T04:11:02.294Z,1.186
2023-05-19T04:12:02.329Z,1.152
2023-05-19T04:13:02.347Z,1.169
2023-05-19T04:14:02.367Z,1.191
2023-05-19T04:15:02.388Z,1.312
2023-05-19T04:16:02.474Z,1.345
2023-05-19T04:17:02.429Z,1.334
2023-05-19T04:18:02.509Z,1.317
2023-05-19T04:19:02.522Z,1.271
2023-05-19T04:20:02.524Z,1.237
2023-05-19T04:22:02.553Z,1.242
2023-05-19T04:23:02.537Z,1.299
2023-05-19T04:24:02.560Z,1.282
2023-05-19T04:25:02.578Z,1.288
2023-05-19T04:26:02.613Z,1.31
2023-05-19T04:27:02.676Z,1.258
2023-05-19T04:28:02.610Z,1.276
2023-05-19T04:29:02.614Z,1.349
2023-05-19T04:30:02.633Z,1.388
2023-05-19T04:31:02.661Z,1.441
2023-05-19T04:32:02.645Z,1.429
2023-05-19T04:33:02.691Z,1.435
2023-05-19T04:34:02.752Z,1.4
2023-05-19T04:35:02.718Z,1.405
2023-05-19T04:36:02.741Z,1.497
2023-05-19T04:37:02.780Z,1.467
2023-05-19T04:38:02.790Z,1.506
2023-05-19T04:39:02.826Z,1.524
2023-05-19T04:40:02.849Z,1.547
2023-05-19T04:41:02.873Z,1.586
2023-05-19T04:42:02.895Z,1.604
2023-05-19T04:43:02.925Z,1.591
2023-05-19T04:44:02.947Z,1.561
2023-05-19T04:45:02.972Z,1.583
2023-05-19T04:46:02.992Z,1.565
2023-05-19T04:47:03.045Z,1.623
2023-05-19T04:48:03.058Z,1.662
2023-05-19T04:49:03.058Z,1.749
2023-05-19T04:50:03.083Z,1.806
2023-05-19T04:51:02.102Z,1.811
2023-05-19T04:52:02.115Z,1.816
2023-05-19T04:53:03.633Z,1.855
2023-05-19T04:54:02.414Z,1.821
2023-05-19T04:55:05.431Z,1.88
2023-05-19T04:57:02.248Z,1.857
2023-05-19T04:58:02.214Z,1.75
2023-05-19T04:59:02.237Z,1.753
2023-05-19T05:00:02.229Z,1.77
2023-05-19T05:01:02.235Z,1.864
2023-05-19T05:02:02.308Z,1.901
2023-05-19T05:03:02.341Z,1.831
2023-05-19T05:04:02.701Z,1.841
2023-05-19T05:05:02.343Z,1.685
2023-05-19T05:06:02.362Z,1.602
2023-05-19T05:07:02.368Z,1.481
2023-05-19T05:08:02.401Z,1.518
2023-05-19T05:09:02.421Z,1.46
2023-05-19T05:10:02.443Z,1.487
2023-05-19T05:11:02.463Z,1.496
2023-05-19T05:12:02.485Z,1.486
2023-05-19T05:13:02.511Z,1.523
2023-05-19T05:14:02.535Z,1.541
2023-05-19T05:15:02.548Z,1.483
2023-05-19T05:16:02.599Z,1.557
2023-05-19T05:17:02.585Z,1.518
2023-05-19T05:18:02.651Z,1.476
2023-05-19T05:19:02.668Z,1.514
2023-05-19T05:20:02.633Z,1.513
2023-05-19T05:21:02.646Z,1.546
2023-05-19T05:22:02.650Z,1.601
2023-05-19T05:23:02.651Z,1.523
2023-05-19T05:24:02.664Z,1.522
2023-05-19T05:25:02.690Z,1.674
2023-05-19T05:26:02.711Z,1.693
2023-05-19T05:27:02.741Z,1.688
2023-05-19T05:28:02.775Z,1.688
2023-05-19T05:29:02.804Z,1.667
2023-05-19T05:30:02.833Z,1.759
2023-05-19T05:31:02.852Z,1.816
2023-05-19T05:32:02.910Z,1.773
2023-05-19T05:33:03.077Z,1.872
2023-05-19T05:34:02.932Z,2.026
2023-05-19T05:35:02.963Z,2.044
2023-05-19T05:36:02.981Z,2.019
2023-05-19T05:37:03.007Z,1.978
2023-05-19T05:38:03.035Z,1.996
2023-05-19T05:39:03.054Z,1.853
2023-05-19T05:40:03.089Z,1.837
2023-05-19T05:41:02.091Z,1.774
2023-05-19T05:42:02.134Z,1.835
2023-05-19T05:43:02.153Z,1.87
2023-05-19T05:44:02.176Z,1.973
2023-05-19T05:45:02.174Z,1.992
2023-05-19T05:46:02.233Z,2.091
2023-05-19T05:47:02.206Z,2.109
2023-05-19T05:48:02.255Z,2.086
2023-05-19T05:49:02.223Z,2.143
2023-05-19T05:50:02.230Z,2.2
2023-05-19T05:51:02.239Z,2.209
2023-05-19T05:52:06.341Z,2.209
2023-05-19T05:53:02.283Z,2.167
2023-05-19T05:54:02.311Z,2.253
2023-05-19T05:55:02.350Z,2.143
2023-05-19T05:56:02.387Z,2.084
2023-05-19T05:57:02.405Z,2.033
2023-05-19T05:58:02.445Z,1.929
2023-05-19T05:59:02.448Z,1.824
2023-05-19T06:00:02.525Z,1.805
2023-05-19T06:01:02.497Z,1.747
2023-05-19T06:02:02.586Z,1.52
2023-05-19T06:03:02.698Z,1.341
2023-05-19T06:04:02.593Z,1.245
2023-05-19T06:05:02.664Z,1.225
2023-05-19T06:06:02.685Z,1.176
2023-05-19T06:07:02.650Z,0.9981
2023-05-19T06:08:02.665Z,0.8543
2023-05-19T06:09:02.694Z,0.8651
2023-05-19T06:10:02.722Z,0.7988
2023-05-19T06:11:02.725Z,0.6989
2023-05-19T06:12:02.763Z,0.363
2023-05-19T06:13:02.765Z,0.544
2023-05-19T06:14:02.799Z,0.6052
2023-05-19T06:15:02.831Z,0.3855
2023-05-19T06:16:02.848Z,0.2651
2023-05-19T06:17:02.825Z,0.241
2023-05-19T06:18:02.884Z,0.2257
2023-05-19T06:19:02.898Z,0.1905
2023-05-19T06:20:02.861Z,0.09651
2023-05-19T06:21:02.873Z,-0.2656
2023-05-19T06:22:02.873Z,-0.3491
2023-05-19T06:23:02.907Z,-0.4377
2023-05-19T06:24:02.911Z,-0.5176
2023-05-19T06:25:02.944Z,-0.546
2023-05-19T06:26:02.955Z,-0.6639
2023-05-19T06:27:02.984Z,-0.6682
2023-05-19T06:28:03.017Z,-0.4553
2023-05-19T06:29:03.042Z,-0.989
2023-05-19T06:30:03.079Z,-0.9223
2023-05-19T06:31:03.099Z,-1.061
2023-05-19T06:32:02.117Z,-0.9563
2023-05-19T06:33:02.185Z,-0.7573
2023-05-19T06:34:02.168Z,-0.784
2023-05-19T06:35:02.176Z,-0.31
2023-05-19T06:36:02.211Z,-0.4222
2023-05-19T06:37:02.282Z,-0.3724
2023-05-19T06:38:02.254Z,-0.4636
2023-05-19T06:39:02.881Z,-0.5132
2023-05-19T06:40:02.311Z,-0.591
2023-05-19T06:41:02.289Z,-0.5952
2023-05-19T06:42:02.299Z,-0.552
2023-05-19T06:43:02.320Z,-0.4862
2023-05-19T06:44:02.315Z,-0.3745
2023-05-19T06:45:02.361Z,-0.4671
2023-05-19T06:46:02.336Z,-0.4676
2023-05-19T06:47:02.405Z,-0.3828
2023-05-19T06:48:02.408Z,-0.4785
2023-05-19T06:49:02.421Z,-0.62
2023-05-19T06:50:02.425Z,-0.8332
2023-05-19T06:51:02.469Z,-0.9918
2023-05-19T06:52:02.472Z,-0.9076
2023-05-19T06:53:02.494Z,-0.9856
2023-05-19T06:54:02.540Z,-1.006
2023-05-19T06:55:02.549Z,-1.034
2023-05-19T06:56:02.583Z,-1.078
2023-05-19T06:57:02.583Z,-1.288
2023-05-19T06:58:02.617Z,-1.19
2023-05-19T06:59:02.630Z,-1.193
2023-05-19T07:00:02.646Z,-1.207
2023-05-19T07:01:02.671Z,-1.663
2023-05-19T07:02:02.705Z,-1.536
2023-05-19T07:03:02.767Z,-1.888
2023-05-19T07:04:02.736Z,-1.74
2023-05-19T07:05:02.738Z,-1.112
2023-05-19T07:06:03.015Z,-1.568
2023-05-19T07:07:02.758Z,-1.642
2023-05-19T07:08:02.760Z,-1.747
2023-05-19T07:09:02.757Z,-2.081
2023-05-19T07:10:02.801Z,-2.212
2023-05-19T07:11:02.799Z,-2.13
2023-05-19T07:12:02.855Z,-2.028
2023-05-19T07:13:02.851Z,-1.83
2023-05-19T07:14:02.880Z,-2.085
2023-05-19T07:15:02.898Z,-1.981
2023-05-19T07:16:02.949Z,-1.855
2023-05-19T07:17:02.958Z,-2.137
2023-05-19T07:18:03.035Z,-2.131
2023-05-19T07:19:03.073Z,-2.364
2023-05-19T07:20:03.030Z,-2.228
2023-05-19T07:21:03.065Z,-2.395
2023-05-19T07:22:03.076Z,-2.194
2023-05-19T07:23:02.101Z,-2.02
2023-05-19T07:24:02.145Z,-2.282
2023-05-19T07:25:02.152Z,-2.208
2023-05-19T07:26:02.162Z,-2.243
2023-05-19T07:27:02.213Z,-2.364
2023-05-19T07:28:02.210Z,-2.486
2023-05-19T07:29:02.236Z,-2.464
2023-05-19T07:30:02.242Z,-2.766
2023-05-19T07:31:02.268Z,-2.732
2023-05-19T07:32:02.337Z,-2.483
2023-05-19T07:33:02.289Z,-2.286
2023-05-19T07:34:02.276Z,-2.29
2023-05-19T07:35:02.308Z,-2.479
2023-05-19T07:36:02.292Z,-2.367
2023-05-19T07:37:02.308Z,-2.364
2023-05-19T07:38:02.309Z,-2.342
2023-05-19T07:39:02.381Z,-2.327
2023-05-19T07:40:02.438Z,-2.177
2023-05-19T07:41:02.416Z,-2.242
2023-05-19T07:42:02.442Z,-1.687
2023-05-19T07:43:02.460Z,-2.141
2023-05-19T07:44:02.494Z,-2.006
2023-05-19T07:45:02.537Z,-2.349
2023-05-19T07:46:02.592Z,-2.426
2023-05-19T07:47:02.584Z,-2.147
2023-05-19T07:48:02.632Z,-2.441
2023-05-19T07:49:02.627Z,-2.08
2023-05-19T07:50:02.662Z,-1.849
2023-05-19T07:51:02.683Z,-1.859
2023-05-19T07:52:02.694Z,-1.825
2023-05-19T07:53:02.713Z,-1.969
2023-05-19T07:54:02.743Z,-1.703
2023-05-19T07:55:02.751Z,-1.347
2023-05-19T07:56:02.771Z,-1.476
2023-05-19T07:57:02.791Z,-1.314
2023-05-19T07:58:02.813Z,-1.199
2023-05-19T07:59:02.825Z,-1.11
2023-05-19T08:00:02.845Z,-0.8699
2023-05-19T08:01:02.856Z,-0.4484
2023-05-19T08:02:02.917Z,-0.4314
2023-05-19T08:03:03.045Z,-0.6228
2023-05-19T08:04:02.966Z,-0.4688
2023-05-19T08:05:02.922Z,-0.2965
2023-05-19T08:06:02.905Z,-0.2664
2023-05-19T08:07:02.920Z,-0.2814
2023-05-19T08:08:02.965Z,0.1948
2023-05-19T08:09:02.977Z,0.4766
2023-05-19T08:10:03.015Z,-0.05249
2023-05-19T08:11:03.037Z,-0.1205
2023-05-19T08:12:03.058Z,-0.07215
2023-05-19T08:13:03.081Z,-0.06577
2023-05-19T08:14:02.112Z,0.2158
2023-05-19T08:15:02.201Z,0.4407
2023-05-19T08:16:02.267Z,0.2753
2023-05-19T08:17:02.185Z,0.01241
2023-05-19T08:18:02.338Z,-0.1068
2023-05-19T08:19:02.252Z,0.3179
2023-05-19T08:20:02.262Z,0.322
2023-05-19T08:21:02.295Z,0.2413
2023-05-19T08:22:02.300Z,0.288
2023-05-19T08:23:02.327Z,0.4348
2023-05-19T08:24:02.362Z,0.5388
2023-05-19T08:25:02.392Z,0.6676
2023-05-19T08:26:02.386Z,1.125
2023-05-19T08:27:02.401Z,0.8909
2023-05-19T08:28:02.413Z,0.8092
2023-05-19T08:29:02.451Z,0.7554
2023-05-19T08:30:02.435Z,0.8481
2023-05-19T08:31:02.463Z,1.253
2023-05-19T08:32:02.464Z,1.019
2023-05-19T08:33:02.560Z,1.395
2023-05-19T08:34:02.500Z,1.314
2023-05-19T08:35:02.527Z,0.8481
2023-05-19T08:36:02.537Z,0.9143
2023-05-19T08:37:02.564Z,1.016
2023-05-19T08:38:02.609Z,0.9266
2023-05-19T08:39:02.635Z,1.123
2023-05-19T08:40:02.629Z,1.063
2023-05-19T08:41:02.662Z,1.009
2023-05-19T08:42:02.708Z,1.003
2023-05-19T08:43:02.742Z,1.135
2023-05-19T08:44:02.741Z,1.501
2023-05-19T08:45:02.761Z,1.067
2023-05-19T08:46:02.772Z,1.149
2023-05-19T08:47:02.997Z,1.301
2023-05-19T08:48:02.853Z,1.484
2023-05-19T08:49:02.834Z,1.605
2023-05-19T08:50:02.883Z,1.605
2023-05-19T08:51:02.884Z,1.622
2023-05-19T08:52:02.912Z,1.851
2023-05-19T08:53:02.921Z,1.672
2023-05-19T08:54:02.935Z,1.798
2023-05-19T08:55:02.946Z,1.955
2023-05-19T08:56:02.942Z,1.7
2023-05-19T08:57:02.947Z,1.823
2023-05-19T08:58:02.966Z,1.752
2023-05-19T08:59:02.985Z,1.774
2023-05-19T09:00:03.034Z,2.023
2023-05-19T09:01:03.065Z,1.954
2023-05-19T09:02:03.064Z,2.272
2023-05-19T09:04:02.259Z,2.434
2023-05-19T09:05:02.210Z,2.465
2023-05-19T09:06:02.328Z,2.354
2023-05-19T09:07:02.196Z,2.509
2023-05-19T09:08:02.220Z,2.557
2023-05-19T09:09:02.236Z,2.65
2023-05-19T09:10:02.266Z,2.733
2023-05-19T09:11:02.324Z,2.654
2023-05-19T09:12:02.321Z,2.571
2023-05-19T09:13:02.347Z,2.969
2023-05-19T09:14:02.371Z,3.132
2023-05-19T09:15:02.401Z,2.676
2023-05-19T09:16:02.478Z,2.531
2023-05-19T09:17:02.511Z,2.755
2023-05-19T09:18:02.500Z,3.065
2023-05-19T09:19:02.499Z,3
2023-05-19T09:20:02.491Z,3.151
2023-05-19T09:21:02.712Z,3.282
2023-05-19T09:22:02.519Z,3.318
2023-05-19T09:23:02.520Z,3.083
2023-05-19T09:24:02.546Z,3.206
2023-05-19T09:25:02.555Z,3.324
2023-05-19T09:26:02.564Z,2.9
2023-05-19T09:27:02.556Z,2.811
2023-05-19T09:28:02.591Z,2.981
2023-05-19T09:29:02.607Z,2.825
2023-05-19T09:30:02.643Z,2.895
2023-05-19T09:31:02.675Z,2.97
2023-05-19T09:32:02.705Z,3.112
2023-05-19T09:33:02.780Z,2.974
2023-05-19T09:34:02.736Z,3.2
2023-05-19T09:35:02.765Z,3.355
2023-05-19T09:36:02.788Z,3.141
2023-05-19T09:37:02.815Z,3.376
2023-05-19T09:38:02.838Z,3.345
2023-05-19T09:39:02.858Z,3.181
2023-05-19T09:40:02.879Z,2.871
2023-05-19T09:41:02.915Z,3.086
2023-05-19T09:42:02.957Z,3.022
2023-05-19T09:43:02.956Z,3.209
2023-05-19T09:44:02.970Z,3.591
2023-05-19T09:45:02.992Z,3.405
2023-05-19T09:46:03.025Z,3.193
2023-05-19T09:47:03.025Z,3.305
2023-05-19T09:48:03.127Z,3.022
2023-05-19T09:49:03.058Z,3.033
2023-05-19T09:50:03.081Z,3.162
2023-05-19T09:51:02.095Z,3.124
2023-05-19T09:52:02.139Z,3.141
2023-05-19T09:53:02.119Z,3.023
2023-05-19T09:54:02.113Z,3.071
2023-05-19T09:55:02.124Z,3.135
2023-05-19T09:56:02.157Z,3.396
2023-05-19T09:57:02.192Z,3.364
2023-05-19T09:58:02.202Z,3.077
2023-05-19T09:59:02.269Z,3.448
2023-05-19T10:00:02.260Z,3.034
2023-05-19T10:01:02.375Z,3.073
2023-05-19T10:02:02.563Z,3.079
2023-05-19T10:03:02.350Z,2.982
2023-05-19T10:04:03.805Z,3.15
2023-05-19T10:05:02.434Z,3.118
2023-05-19T10:06:02.407Z,2.998
2023-05-19T10:07:02.433Z,3.054
2023-05-19T10:08:02.449Z,3.016
2023-05-19T10:09:02.458Z,3.031
2023-05-19T10:10:02.482Z,3.005
2023-05-19T10:11:02.505Z,3.074
2023-05-19T10:12:02.517Z,2.865
2023-05-19T10:13:02.543Z,2.764
2023-05-19T10:14:02.550Z,2.906
2023-05-19T10:15:02.574Z,2.909
2023-05-19T10:16:02.932Z,2.961
2023-05-19T10:17:02.704Z,3.141
2023-05-19T10:18:02.683Z,2.952
2023-05-19T10:19:02.692Z,3.098
2023-05-19T10:20:02.617Z,3.179
2023-05-19T10:21:02.638Z,3.242
2023-05-19T10:22:02.652Z,3.173
2023-05-19T10:23:02.679Z,3.045
2023-05-19T10:24:02.717Z,3.141
2023-05-19T10:25:02.752Z,2.981
2023-05-19T10:26:02.767Z,3.109
2023-05-19T10:27:02.777Z,3.191
2023-05-19T10:28:02.810Z,3.494
2023-05-19T10:29:02.821Z,3.529
2023-05-19T10:30:02.844Z,3.295
2023-05-19T10:31:02.891Z,3.446
2023-05-19T10:32:02.964Z,3.559
2023-05-19T10:33:02.949Z,4.116
2023-05-19T10:34:02.934Z,4.244
2023-05-19T10:35:02.944Z,3.824
2023-05-19T10:36:02.960Z,3.289
2023-05-19T10:37:02.976Z,3.308
2023-05-19T10:38:02.996Z,3.276
2023-05-19T10:39:02.994Z,3.341
2023-05-19T10:40:03.008Z,3.525
2023-05-19T10:41:03.015Z,3.36
2023-05-19T10:42:03.026Z,3.346
2023-05-19T10:43:03.031Z,3.558
2023-05-19T10:44:03.062Z,3.491
2023-05-19T10:45:03.086Z,3.779
2023-05-19T10:46:02.109Z,3.235
2023-05-19T10:47:02.246Z,3.27
2023-05-19T10:48:02.260Z,3.399
2023-05-19T10:49:02.185Z,3.313
2023-05-19T10:50:02.209Z,3.39
2023-05-19T10:51:02.243Z,4.001
2023-05-19T10:52:02.268Z,4.235
2023-05-19T10:53:02.293Z,3.928
2023-05-19T10:54:02.307Z,3.406
2023-05-19T10:55:02.330Z,3.58
2023-05-19T10:56:02.359Z,3.494
2023-05-19T10:57:02.373Z,3.598
2023-05-19T10:58:02.417Z,3.597
2023-05-19T10:59:02.421Z,3.649
2023-05-19T11:00:02.452Z,3.699
2023-05-19T11:01:02.463Z,3.933
2023-05-19T11:02:02.527Z,3.948
2023-05-19T11:03:02.562Z,3.764
2023-05-19T11:04:02.524Z,4.077
2023-05-19T11:05:02.517Z,4.009
2023-05-19T11:06:02.524Z,3.955
2023-05-19T11:07:02.545Z,3.922
2023-05-19T11:08:02.606Z,3.905
2023-05-19T11:09:02.575Z,3.903
2023-05-19T11:10:02.575Z,3.82
2023-05-19T11:11:02.592Z,3.754
2023-05-19T11:12:02.645Z,3.751
2023-05-19T11:13:02.650Z,3.707
2023-05-19T11:14:02.677Z,3.74
2023-05-19T11:15:02.698Z,3.549
2023-05-19T11:16:02.724Z,3.62
2023-05-19T11:17:02.897Z,3.734
2023-05-19T11:18:02.809Z,3.279
2023-05-19T11:19:02.874Z,3.379
2023-05-19T11:20:02.828Z,3.233
2023-05-19T11:21:02.906Z,3.21
2023-05-19T11:22:02.864Z,3.325
2023-05-19T11:23:02.898Z,3.45
2023-05-19T11:24:02.967Z,3.322
2023-05-19T11:25:02.926Z,3.726
2023-05-19T11:26:02.942Z,4.097
2023-05-19T11:27:02.973Z,4.296
2023-05-19T11:28:03.001Z,4.316
2023-05-19T11:29:03.011Z,4.222
2023-05-19T11:30:03.038Z,4.077
2023-05-19T11:31:03.044Z,3.893
2023-05-19T11:32:03.085Z,3.962
2023-05-19T11:33:03.194Z,3.671
2023-05-19T11:34:03.076Z,3.443
2023-05-19T11:35:03.092Z,3.657
2023-05-19T11:36:03.132Z,3.638
2023-05-19T11:37:03.102Z,3.736
2023-05-19T11:38:03.105Z,3.697
2023-05-19T11:39:03.130Z,3.738
2023-05-19T11:40:03.161Z,3.805
2023-05-19T11:41:03.189Z,4.114
2023-05-19T11:42:03.203Z,4.149
2023-05-19T11:43:03.231Z,4.113
2023-05-19T11:44:03.246Z,4.022
2023-05-19T11:45:03.270Z,4.152
2023-05-19T11:46:03.412Z,3.627
2023-05-19T11:47:03.350Z,3.615
2023-05-19T11:48:03.640Z,3.655
2023-05-19T11:49:03.366Z,3.816
2023-05-19T11:50:03.386Z,3.625
2023-05-19T11:51:03.397Z,3.705
2023-05-19T11:52:03.425Z,3.49
2023-05-19T11:53:03.443Z,3.358
2023-05-19T11:54:03.481Z,3.358
2023-05-19T11:55:03.478Z,3.584
2023-05-19T11:56:03.481Z,3.76
2023-05-19T11:57:03.515Z,3.687
2023-05-19T11:58:05.083Z,3.458
2023-05-19T11:59:03.521Z,3.684
2023-05-19T12:00:03.528Z,3.722
2023-05-19T12:01:03.524Z,3.597
2023-05-19T12:02:03.558Z,3.371
2023-05-19T12:03:03.619Z,3.412
2023-05-19T12:04:03.626Z,3.448
2023-05-19T12:05:03.709Z,3.527
2023-05-19T12:06:03.723Z,3.559
2023-05-19T12:07:03.687Z,3.527
2023-05-19T12:08:03.708Z,3.373
2023-05-19T12:09:03.729Z,3.249
2023-05-19T12:10:03.771Z,3.403
2023-05-19T12:11:03.791Z,3.177
2023-05-19T12:12:03.828Z,3.286
2023-05-19T12:13:03.829Z,3.414
2023-05-19T12:14:03.848Z,3.188
2023-05-19T12:15:03.871Z,3.221
2023-05-19T12:16:03.931Z,3.188
2023-05-19T12:17:03.898Z,3.091
2023-05-19T12:18:04.048Z,3.151
2023-05-19T12:19:03.961Z,3.248
2023-05-19T12:20:03.946Z,3.086
2023-05-19T12:21:03.957Z,3.064
2023-05-19T12:22:04.120Z,3.193
2023-05-19T12:23:04.209Z,3.243
2023-05-19T12:24:04.017Z,3.243
2023-05-19T12:25:04.023Z,3.341
2023-05-19T12:26:04.034Z,3.419
2023-05-19T12:27:04.038Z,3.436
2023-05-19T12:28:04.119Z,3.31
2023-05-19T12:29:03.091Z,3.057
2023-05-19T12:30:03.118Z,3.17
2023-05-19T12:31:03.152Z,2.977
2023-05-19T12:32:03.222Z,2.977
2023-05-19T12:33:03.496Z,2.847
2023-05-19T12:34:03.232Z,2.874
2023-05-19T12:35:03.251Z,2.775
2023-05-19T12:36:03.293Z,2.841
2023-05-19T12:37:03.301Z,2.804
2023-05-19T12:38:03.337Z,2.856
2023-05-19T12:39:03.373Z,2.791
2023-05-19T12:40:03.401Z,2.593
2023-05-19T12:41:03.419Z,2.677
2023-05-19T12:42:03.445Z,2.815
2023-05-19T12:43:03.484Z,2.651
2023-05-19T12:44:03.490Z,2.732
2023-05-19T12:45:03.631Z,2.689
2023-05-19T12:46:03.535Z,2.754
2023-05-19T12:47:03.544Z,2.669
2023-05-19T12:48:03.628Z,2.487